sensor_id;sensor_type;location;lat;lon;timestamp;P1;durP1;ratioP1;P2;durP2;ratioP2
57858;SDS011;49153;45.568;11.894;2022-10-15T00:00:54;34.40;;;21.10;;
57858;SDS011;49153;45.568;11.894;2022-10-15T00:03:34;36.67;;;22.27;;
57858;SDS011;49153;45.568;11.894;2022-10-15T00:06:04;38.33;;;21.30;;
57858;SDS011;49153;45.568;11.894;2022-10-15T00:08:30;40.27;;;23.37;;
57858;SDS011;49153;45.568;11.894;2022-10-15T00:11:00;36.67;;;20.92;;
57858;SDS011;49153;45.568;11.894;2022-10-15T00:13:27;38.55;;;21.77;;
57858;SDS011;49153;45.568;11.894;2022-10-15T00:15:53;34.60;;;20.50;;
57858;SDS011;49153;45.568;11.894;2022-10-15T00:18:19;36.53;;;21.38;;
57858;SDS011;49153;45.568;11.894;2022-10-15T00:20:45;37.55;;;22.65;;
57858;SDS011;49153;45.568;11.894;2022-10-15T00:23:10;36.92;;;21.85;;
57858;SDS011;49153;45.568;11.894;2022-10-15T00:25:36;37.17;;;21.48;;
57858;SDS011;49153;45.568;11.894;2022-10-15T00:28:02;36.55;;;21.48;;
57858;SDS011;49153;45.568;11.894;2022-10-15T00:30:27;37.58;;;21.83;;
57858;SDS011;49153;45.568;11.894;2022-10-15T00:32:53;37.15;;;21.95;;
57858;SDS011;49153;45.568;11.894;2022-10-15T00:35:18;36.95;;;22.23;;
57858;SDS011;49153;45.568;11.894;2022-10-15T00:37:43;37.35;;;20.30;;
57858;SDS011;49153;45.568;11.894;2022-10-15T00:40:10;37.13;;;21.77;;
57858;SDS011;49153;45.568;11.894;2022-10-15T00:42:38;37.58;;;21.83;;
57858;SDS011;49153;45.568;11.894;2022-10-15T00:45:04;37.60;;;22.00;;
57858;SDS011;49153;45.568;11.894;2022-10-15T00:47:39;36.50;;;21.88;;
57858;SDS011;49153;45.568;11.894;2022-10-15T00:55:09;37.85;;;21.65;;
57858;SDS011;49153;45.568;11.894;2022-10-15T00:57:57;36.88;;;22.00;;
57858;SDS011;49153;45.568;11.894;2022-10-15T01:00:26;38.10;;;21.30;;
57858;SDS011;49153;45.568;11.894;2022-10-15T01:02:52;34.78;;;20.60;;
57858;SDS011;49153;45.568;11.894;2022-10-15T01:05:17;35.67;;;21.50;;
57858;SDS011;49153;45.568;11.894;2022-10-15T01:07:43;35.33;;;20.77;;
57858;SDS011;49153;45.568;11.894;2022-10-15T01:10:09;34.40;;;20.60;;
57858;SDS011;49153;45.568;11.894;2022-10-15T01:12:50;37.78;;;21.80;;
57858;SDS011;49153;45.568;11.894;2022-10-15T01:15:23;39.45;;;22.33;;
57858;SDS011;49153;45.568;11.894;2022-10-15T01:17:54;35.42;;;20.92;;
57858;SDS011;49153;45.568;11.894;2022-10-15T01:26:06;35.47;;;20.15;;
57858;SDS011;49153;45.568;11.894;2022-10-15T01:36:39;37.22;;;20.95;;
57858;SDS011;49153;45.568;11.894;2022-10-15T01:42:06;34.08;;;19.77;;
57858;SDS011;49153;45.568;11.894;2022-10-15T01:44:37;36.10;;;20.50;;
57858;SDS011;49153;45.568;11.894;2022-10-15T01:47:07;34.20;;;19.83;;
57858;SDS011;49153;45.568;11.894;2022-10-15T01:49:41;34.92;;;20.55;;
57858;SDS011;49153;45.568;11.894;2022-10-15T01:52:09;37.38;;;20.88;;
57858;SDS011;49153;45.568;11.894;2022-10-15T01:54:39;34.08;;;19.83;;
57858;SDS011;49153;45.568;11.894;2022-10-15T01:57:05;31.10;;;19.08;;
57858;SDS011;49153;45.568;11.894;2022-10-15T01:59:32;32.50;;;19.17;;
57858;SDS011;49153;45.568;11.894;2022-10-15T02:01:58;36.63;;;20.90;;
57858;SDS011;49153;45.568;11.894;2022-10-15T02:04:25;34.53;;;20.73;;
57858;SDS011;49153;45.568;11.894;2022-10-15T02:06:54;37.92;;;21.80;;
57858;SDS011;49153;45.568;11.894;2022-10-15T02:14:34;35.22;;;19.73;;
57858;SDS011;49153;45.568;11.894;2022-10-15T02:17:16;36.55;;;20.73;;
57858;SDS011;49153;45.568;11.894;2022-10-15T02:24:55;34.85;;;19.77;;
57858;SDS011;49153;45.568;11.894;2022-10-15T02:27:25;31.88;;;19.42;;
57858;SDS011;49153;45.568;11.894;2022-10-15T02:29:54;34.15;;;20.65;;
57858;SDS011;49153;45.568;11.894;2022-10-15T02:32:23;35.83;;;20.58;;
57858;SDS011;49153;45.568;11.894;2022-10-15T02:34:49;33.85;;;20.38;;
57858;SDS011;49153;45.568;11.894;2022-10-15T02:37:16;34.70;;;20.38;;
57858;SDS011;49153;45.568;11.894;2022-10-15T02:39:46;35.03;;;20.13;;
57858;SDS011;49153;45.568;11.894;2022-10-15T02:42:12;37.17;;;21.52;;
57858;SDS011;49153;45.568;11.894;2022-10-15T02:44:40;38.22;;;21.15;;
57858;SDS011;49153;45.568;11.894;2022-10-15T02:47:06;36.17;;;20.33;;
57858;SDS011;49153;45.568;11.894;2022-10-15T02:49:31;37.92;;;20.75;;
57858;SDS011;49153;45.568;11.894;2022-10-15T02:51:56;37.90;;;20.70;;
57858;SDS011;49153;45.568;11.894;2022-10-15T02:54:23;35.13;;;20.85;;
57858;SDS011;49153;45.568;11.894;2022-10-15T02:56:48;35.30;;;20.55;;
57858;SDS011;49153;45.568;11.894;2022-10-15T02:59:14;32.25;;;19.73;;
57858;SDS011;49153;45.568;11.894;2022-10-15T03:01:39;34.22;;;20.20;;
57858;SDS011;49153;45.568;11.894;2022-10-15T03:04:04;35.22;;;20.20;;
57858;SDS011;49153;45.568;11.894;2022-10-15T03:06:30;35.67;;;20.63;;
57858;SDS011;49153;45.568;11.894;2022-10-15T03:08:55;35.95;;;20.13;;
57858;SDS011;49153;45.568;11.894;2022-10-15T03:11:21;32.72;;;19.27;;
57858;SDS011;49153;45.568;11.894;2022-10-15T03:13:46;31.85;;;18.83;;
57858;SDS011;49153;45.568;11.894;2022-10-15T03:16:11;34.80;;;20.05;;
57858;SDS011;49153;45.568;11.894;2022-10-15T03:18:37;37.50;;;20.52;;
57858;SDS011;49153;45.568;11.894;2022-10-15T03:21:02;33.20;;;19.90;;
57858;SDS011;49153;45.568;11.894;2022-10-15T03:23:28;33.40;;;19.77;;
57858;SDS011;49153;45.568;11.894;2022-10-15T03:25:54;33.08;;;19.88;;
57858;SDS011;49153;45.568;11.894;2022-10-15T03:28:20;32.53;;;19.83;;
57858;SDS011;49153;45.568;11.894;2022-10-15T03:30:46;31.98;;;19.25;;
57858;SDS011;49153;45.568;11.894;2022-10-15T03:33:11;34.63;;;19.98;;
57858;SDS011;49153;45.568;11.894;2022-10-15T03:35:37;29.92;;;18.13;;
57858;SDS011;49153;45.568;11.894;2022-10-15T03:38:03;38.05;;;19.90;;
57858;SDS011;49153;45.568;11.894;2022-10-15T03:40:29;33.97;;;20.15;;
57858;SDS011;49153;45.568;11.894;2022-10-15T03:42:54;33.58;;;19.50;;
57858;SDS011;49153;45.568;11.894;2022-10-15T03:45:23;34.65;;;19.70;;
57858;SDS011;49153;45.568;11.894;2022-10-15T03:47:49;35.78;;;20.40;;
57858;SDS011;49153;45.568;11.894;2022-10-15T03:50:14;36.40;;;20.15;;
57858;SDS011;49153;45.568;11.894;2022-10-15T03:52:40;33.50;;;19.92;;
57858;SDS011;49153;45.568;11.894;2022-10-15T03:55:06;30.70;;;18.75;;
57858;SDS011;49153;45.568;11.894;2022-10-15T03:57:32;34.70;;;19.30;;
57858;SDS011;49153;45.568;11.894;2022-10-15T03:59:57;31.30;;;18.85;;
57858;SDS011;49153;45.568;11.894;2022-10-15T04:02:23;29.15;;;17.65;;
57858;SDS011;49153;45.568;11.894;2022-10-15T04:04:52;29.80;;;18.52;;
57858;SDS011;49153;45.568;11.894;2022-10-15T04:07:18;33.83;;;20.25;;
57858;SDS011;49153;45.568;11.894;2022-10-15T04:09:44;34.38;;;20.17;;
57858;SDS011;49153;45.568;11.894;2022-10-15T04:12:10;33.33;;;19.02;;
57858;SDS011;49153;45.568;11.894;2022-10-15T04:14:35;33.60;;;18.83;;
57858;SDS011;49153;45.568;11.894;2022-10-15T04:17:01;31.30;;;18.48;;
57858;SDS011;49153;45.568;11.894;2022-10-15T04:19:26;27.98;;;18.08;;
57858;SDS011;49153;45.568;11.894;2022-10-15T04:21:52;28.23;;;18.10;;
57858;SDS011;49153;45.568;11.894;2022-10-15T04:24:17;27.48;;;16.88;;
57858;SDS011;49153;45.568;11.894;2022-10-15T04:26:43;31.13;;;18.38;;
57858;SDS011;49153;45.568;11.894;2022-10-15T04:29:08;31.10;;;18.55;;
57858;SDS011;49153;45.568;11.894;2022-10-15T04:31:33;30.40;;;18.65;;
57858;SDS011;49153;45.568;11.894;2022-10-15T04:33:59;29.90;;;18.63;;
57858;SDS011;49153;45.568;11.894;2022-10-15T04:36:24;31.98;;;18.30;;
57858;SDS011;49153;45.568;11.894;2022-10-15T04:38:51;31.77;;;18.55;;
57858;SDS011;49153;45.568;11.894;2022-10-15T04:41:16;32.60;;;18.60;;
57858;SDS011;49153;45.568;11.894;2022-10-15T04:43:42;31.40;;;18.50;;
57858;SDS011;49153;45.568;11.894;2022-10-15T04:46:07;30.15;;;18.48;;
57858;SDS011;49153;45.568;11.894;2022-10-15T04:48:34;28.83;;;18.27;;
57858;SDS011;49153;45.568;11.894;2022-10-15T04:51:07;32.00;;;17.30;;
57858;SDS011;49153;45.568;11.894;2022-10-15T04:53:35;29.80;;;18.20;;
57858;SDS011;49153;45.568;11.894;2022-10-15T04:56:09;28.58;;;18.13;;
57858;SDS011;49153;45.568;11.894;2022-10-15T04:58:37;28.48;;;17.60;;
57858;SDS011;49153;45.568;11.894;2022-10-15T05:01:06;25.83;;;17.08;;
57858;SDS011;49153;45.568;11.894;2022-10-15T05:03:36;27.23;;;17.13;;
57858;SDS011;49153;45.568;11.894;2022-10-15T05:06:03;26.58;;;16.20;;
57858;SDS011;49153;45.568;11.894;2022-10-15T05:08:33;28.50;;;16.90;;
57858;SDS011;49153;45.568;11.894;2022-10-15T05:11:00;29.63;;;16.80;;
57858;SDS011;49153;45.568;11.894;2022-10-15T05:13:26;31.20;;;16.95;;
57858;SDS011;49153;45.568;11.894;2022-10-15T05:15:51;29.75;;;17.52;;
57858;SDS011;49153;45.568;11.894;2022-10-15T05:18:17;31.38;;;17.92;;
57858;SDS011;49153;45.568;11.894;2022-10-15T05:20:42;31.75;;;17.23;;
57858;SDS011;49153;45.568;11.894;2022-10-15T05:23:07;28.90;;;17.33;;
57858;SDS011;49153;45.568;11.894;2022-10-15T05:25:33;30.75;;;17.58;;
57858;SDS011;49153;45.568;11.894;2022-10-15T05:27:58;29.65;;;17.50;;
57858;SDS011;49153;45.568;11.894;2022-10-15T05:30:23;30.00;;;16.73;;
57858;SDS011;49153;45.568;11.894;2022-10-15T05:32:52;29.55;;;17.15;;
57858;SDS011;49153;45.568;11.894;2022-10-15T05:35:18;33.78;;;17.60;;
57858;SDS011;49153;45.568;11.894;2022-10-15T05:37:44;33.70;;;19.10;;
57858;SDS011;49153;45.568;11.894;2022-10-15T05:40:10;33.10;;;18.75;;
57858;SDS011;49153;45.568;11.894;2022-10-15T05:42:36;26.38;;;16.52;;
57858;SDS011;49153;45.568;11.894;2022-10-15T05:45:01;26.50;;;16.95;;
57858;SDS011;49153;45.568;11.894;2022-10-15T05:47:28;26.05;;;16.83;;
57858;SDS011;49153;45.568;11.894;2022-10-15T05:49:53;27.35;;;16.25;;
57858;SDS011;49153;45.568;11.894;2022-10-15T05:52:19;27.52;;;16.42;;
57858;SDS011;49153;45.568;11.894;2022-10-15T05:54:44;28.25;;;16.42;;
57858;SDS011;49153;45.568;11.894;2022-10-15T05:57:09;32.05;;;17.52;;
57858;SDS011;49153;45.568;11.894;2022-10-15T05:59:35;32.40;;;17.52;;
57858;SDS011;49153;45.568;11.894;2022-10-15T06:02:00;32.20;;;18.35;;
57858;SDS011;49153;45.568;11.894;2022-10-15T06:04:26;29.92;;;17.58;;
57858;SDS011;49153;45.568;11.894;2022-10-15T06:06:52;30.42;;;16.90;;
57858;SDS011;49153;45.568;11.894;2022-10-15T06:09:18;31.15;;;17.65;;
57858;SDS011;49153;45.568;11.894;2022-10-15T06:11:43;29.63;;;17.10;;
57858;SDS011;49153;45.568;11.894;2022-10-15T06:14:09;30.65;;;17.42;;
57858;SDS011;49153;45.568;11.894;2022-10-15T06:16:35;34.78;;;17.33;;
57858;SDS011;49153;45.568;11.894;2022-10-15T06:19:00;26.77;;;17.08;;
57858;SDS011;49153;45.568;11.894;2022-10-15T06:21:26;30.83;;;17.70;;
57858;SDS011;49153;45.568;11.894;2022-10-15T06:23:52;33.42;;;18.95;;
57858;SDS011;49153;45.568;11.894;2022-10-15T06:26:17;31.08;;;18.13;;
57858;SDS011;49153;45.568;11.894;2022-10-15T06:28:43;31.90;;;18.48;;
57858;SDS011;49153;45.568;11.894;2022-10-15T06:31:08;29.27;;;17.50;;
57858;SDS011;49153;45.568;11.894;2022-10-15T06:33:34;29.70;;;17.95;;
57858;SDS011;49153;45.568;11.894;2022-10-15T06:36:00;29.92;;;17.40;;
57858;SDS011;49153;45.568;11.894;2022-10-15T06:38:27;30.00;;;17.70;;
57858;SDS011;49153;45.568;11.894;2022-10-15T06:40:53;26.65;;;16.30;;
57858;SDS011;49153;45.568;11.894;2022-10-15T06:43:18;30.92;;;17.83;;
57858;SDS011;49153;45.568;11.894;2022-10-15T06:45:43;29.67;;;18.08;;
57858;SDS011;49153;45.568;11.894;2022-10-15T06:48:09;28.67;;;17.73;;
57858;SDS011;49153;45.568;11.894;2022-10-15T06:50:36;31.50;;;18.50;;
57858;SDS011;49153;45.568;11.894;2022-10-15T06:53:02;30.02;;;17.60;;
57858;SDS011;49153;45.568;11.894;2022-10-15T06:55:29;31.25;;;18.00;;
57858;SDS011;49153;45.568;11.894;2022-10-15T06:57:54;28.30;;;17.15;;
57858;SDS011;49153;45.568;11.894;2022-10-15T07:00:21;29.90;;;17.45;;
57858;SDS011;49153;45.568;11.894;2022-10-15T07:02:47;30.60;;;18.00;;
57858;SDS011;49153;45.568;11.894;2022-10-15T07:05:13;28.48;;;16.80;;
57858;SDS011;49153;45.568;11.894;2022-10-15T07:07:38;27.20;;;16.85;;
57858;SDS011;49153;45.568;11.894;2022-10-15T07:10:04;30.50;;;17.80;;
57858;SDS011;49153;45.568;11.894;2022-10-15T07:12:29;30.80;;;17.45;;
57858;SDS011;49153;45.568;11.894;2022-10-15T07:14:55;29.23;;;18.73;;
57858;SDS011;49153;45.568;11.894;2022-10-15T07:17:20;29.02;;;17.80;;
57858;SDS011;49153;45.568;11.894;2022-10-15T07:19:46;30.45;;;17.85;;
57858;SDS011;49153;45.568;11.894;2022-10-15T07:22:11;29.60;;;18.17;;
57858;SDS011;49153;45.568;11.894;2022-10-15T07:24:36;31.48;;;17.42;;
57858;SDS011;49153;45.568;11.894;2022-10-15T07:27:02;29.45;;;17.50;;
57858;SDS011;49153;45.568;11.894;2022-10-15T07:29:28;29.38;;;18.05;;
57858;SDS011;49153;45.568;11.894;2022-10-15T07:31:53;29.58;;;17.50;;
57858;SDS011;49153;45.568;11.894;2022-10-15T07:34:18;28.70;;;17.33;;
57858;SDS011;49153;45.568;11.894;2022-10-15T07:36:44;31.30;;;18.58;;
57858;SDS011;49153;45.568;11.894;2022-10-15T07:39:09;33.30;;;18.48;;
57858;SDS011;49153;45.568;11.894;2022-10-15T07:41:35;29.65;;;18.33;;
57858;SDS011;49153;45.568;11.894;2022-10-15T07:44:00;27.98;;;17.40;;
57858;SDS011;49153;45.568;11.894;2022-10-15T07:46:26;29.23;;;17.98;;
57858;SDS011;49153;45.568;11.894;2022-10-15T07:48:51;28.92;;;18.35;;
57858;SDS011;49153;45.568;11.894;2022-10-15T07:51:17;30.50;;;17.58;;
57858;SDS011;49153;45.568;11.894;2022-10-15T07:53:42;28.63;;;17.40;;
57858;SDS011;49153;45.568;11.894;2022-10-15T07:56:09;27.45;;;17.25;;
57858;SDS011;49153;45.568;11.894;2022-10-15T07:58:36;28.98;;;16.77;;
57858;SDS011;49153;45.568;11.894;2022-10-15T08:01:06;32.13;;;19.02;;
57858;SDS011;49153;45.568;11.894;2022-10-15T08:03:33;27.88;;;18.00;;
57858;SDS011;49153;45.568;11.894;2022-10-15T08:05:59;31.13;;;18.85;;
57858;SDS011;49153;45.568;11.894;2022-10-15T08:08:29;30.98;;;18.45;;
57858;SDS011;49153;45.568;11.894;2022-10-15T08:10:55;31.60;;;19.35;;
57858;SDS011;49153;45.568;11.894;2022-10-15T08:13:20;29.08;;;19.15;;
57858;SDS011;49153;45.568;11.894;2022-10-15T08:15:46;33.15;;;20.58;;
57858;SDS011;49153;45.568;11.894;2022-10-15T08:18:11;33.50;;;20.23;;
57858;SDS011;49153;45.568;11.894;2022-10-15T08:20:37;31.80;;;19.33;;
57858;SDS011;49153;45.568;11.894;2022-10-15T08:23:03;31.40;;;19.05;;
57858;SDS011;49153;45.568;11.894;2022-10-15T08:25:29;29.15;;;18.88;;
57858;SDS011;49153;45.568;11.894;2022-10-15T08:27:56;30.77;;;19.13;;
57858;SDS011;49153;45.568;11.894;2022-10-15T08:30:23;31.73;;;20.48;;
57858;SDS011;49153;45.568;11.894;2022-10-15T08:32:48;34.67;;;19.98;;
57858;SDS011;49153;45.568;11.894;2022-10-15T08:35:14;30.90;;;20.02;;
57858;SDS011;49153;45.568;11.894;2022-10-15T08:37:39;30.42;;;19.33;;
57858;SDS011;49153;45.568;11.894;2022-10-15T08:40:05;33.00;;;21.02;;
57858;SDS011;49153;45.568;11.894;2022-10-15T08:42:35;33.85;;;20.52;;
57858;SDS011;49153;45.568;11.894;2022-10-15T08:45:05;32.72;;;20.45;;
57858;SDS011;49153;45.568;11.894;2022-10-15T08:47:50;35.72;;;21.42;;
57858;SDS011;49153;45.568;11.894;2022-10-15T08:52:59;32.13;;;20.58;;
57858;SDS011;49153;45.568;11.894;2022-10-15T08:55:43;35.63;;;21.50;;
57858;SDS011;49153;45.568;11.894;2022-10-15T09:01:11;34.05;;;21.02;;
57858;SDS011;49153;45.568;11.894;2022-10-15T09:03:43;36.75;;;23.02;;
57858;SDS011;49153;45.568;11.894;2022-10-15T09:06:32;31.13;;;20.52;;
57858;SDS011;49153;45.568;11.894;2022-10-15T09:11:55;37.25;;;22.80;;
57858;SDS011;49153;45.568;11.894;2022-10-15T09:14:32;36.03;;;21.85;;
57858;SDS011;49153;45.568;11.894;2022-10-15T09:17:03;36.90;;;22.23;;
57858;SDS011;49153;45.568;11.894;2022-10-15T09:19:31;35.42;;;21.52;;
57858;SDS011;49153;45.568;11.894;2022-10-15T09:22:00;35.92;;;23.17;;
57858;SDS011;49153;45.568;11.894;2022-10-15T09:24:27;36.40;;;23.30;;
57858;SDS011;49153;45.568;11.894;2022-10-15T09:27:01;36.10;;;22.65;;
57858;SDS011;49153;45.568;11.894;2022-10-15T09:29:46;35.85;;;22.60;;
57858;SDS011;49153;45.568;11.894;2022-10-15T09:34:51;38.80;;;24.33;;
57858;SDS011;49153;45.568;11.894;2022-10-15T09:39:55;38.95;;;25.65;;
57858;SDS011;49153;45.568;11.894;2022-10-15T09:42:46;37.25;;;24.83;;
57858;SDS011;49153;45.568;11.894;2022-10-15T09:45:15;44.10;;;27.08;;
57858;SDS011;49153;45.568;11.894;2022-10-15T09:47:42;36.42;;;24.48;;
57858;SDS011;49153;45.568;11.894;2022-10-15T09:50:10;40.92;;;23.98;;
57858;SDS011;49153;45.568;11.894;2022-10-15T10:03:16;36.13;;;23.80;;
57858;SDS011;49153;45.568;11.894;2022-10-15T10:05:42;37.67;;;24.27;;
57858;SDS011;49153;45.568;11.894;2022-10-15T10:08:31;37.13;;;24.45;;
57858;SDS011;49153;45.568;11.894;2022-10-15T10:11:00;35.95;;;23.75;;
57858;SDS011;49153;45.568;11.894;2022-10-15T10:13:43;38.25;;;25.15;;
57858;SDS011;49153;45.568;11.894;2022-10-15T10:16:15;43.15;;;26.70;;
57858;SDS011;49153;45.568;11.894;2022-10-15T10:18:43;42.17;;;25.55;;
57858;SDS011;49153;45.568;11.894;2022-10-15T10:21:22;39.40;;;24.58;;
57858;SDS011;49153;45.568;11.894;2022-10-15T10:23:52;41.67;;;25.65;;
57858;SDS011;49153;45.568;11.894;2022-10-15T10:26:17;42.22;;;27.70;;
57858;SDS011;49153;45.568;11.894;2022-10-15T10:28:53;41.10;;;25.77;;
57858;SDS011;49153;45.568;11.894;2022-10-15T10:31:31;44.42;;;27.13;;
57858;SDS011;49153;45.568;11.894;2022-10-15T10:34:09;37.05;;;22.85;;
57858;SDS011;49153;45.568;11.894;2022-10-15T10:36:40;41.78;;;26.98;;
57858;SDS011;49153;45.568;11.894;2022-10-15T10:41:50;43.20;;;27.00;;
57858;SDS011;49153;45.568;11.894;2022-10-15T10:44:40;44.35;;;25.77;;
57858;SDS011;49153;45.568;11.894;2022-10-15T10:47:12;39.70;;;25.05;;
57858;SDS011;49153;45.568;11.894;2022-10-15T10:49:41;39.60;;;26.05;;
57858;SDS011;49153;45.568;11.894;2022-10-15T10:52:26;38.75;;;24.55;;
57858;SDS011;49153;45.568;11.894;2022-10-15T10:55:03;41.83;;;26.17;;
57858;SDS011;49153;45.568;11.894;2022-10-15T11:00:05;39.10;;;24.40;;
57858;SDS011;49153;45.568;11.894;2022-10-15T11:02:32;43.22;;;26.20;;
57858;SDS011;49153;45.568;11.894;2022-10-15T11:05:02;42.75;;;26.88;;
57858;SDS011;49153;45.568;11.894;2022-10-15T11:07:33;38.55;;;26.05;;
57858;SDS011;49153;45.568;11.894;2022-10-15T11:10:12;41.65;;;26.75;;
57858;SDS011;49153;45.568;11.894;2022-10-15T11:12:50;46.55;;;25.95;;
57858;SDS011;49153;45.568;11.894;2022-10-15T11:18:42;48.42;;;30.50;;
57858;SDS011;49153;45.568;11.894;2022-10-15T11:23:46;42.30;;;26.55;;
57858;SDS011;49153;45.568;11.894;2022-10-15T11:29:17;52.60;;;28.08;;
57858;SDS011;49153;45.568;11.894;2022-10-15T11:42:56;46.00;;;27.75;;
57858;SDS011;49153;45.568;11.894;2022-10-15T11:48:29;44.78;;;27.75;;
57858;SDS011;49153;45.568;11.894;2022-10-15T11:51:13;46.00;;;28.80;;
57858;SDS011;49153;45.568;11.894;2022-10-15T11:53:52;43.47;;;26.42;;
57858;SDS011;49153;45.568;11.894;2022-10-15T11:56:29;41.67;;;26.73;;
57858;SDS011;49153;45.568;11.894;2022-10-15T11:59:11;44.33;;;28.63;;
57858;SDS011;49153;45.568;11.894;2022-10-15T12:01:43;44.70;;;28.27;;
57858;SDS011;49153;45.568;11.894;2022-10-15T12:07:06;48.45;;;29.58;;
57858;SDS011;49153;45.568;11.894;2022-10-15T12:09:40;47.70;;;30.77;;
57858;SDS011;49153;45.568;11.894;2022-10-15T12:17:45;50.08;;;30.20;;
57858;SDS011;49153;45.568;11.894;2022-10-15T12:20:17;44.15;;;28.77;;
57858;SDS011;49153;45.568;11.894;2022-10-15T12:22:55;45.92;;;29.48;;
57858;SDS011;49153;45.568;11.894;2022-10-15T12:28:15;45.83;;;30.20;;
57858;SDS011;49153;45.568;11.894;2022-10-15T12:33:23;45.95;;;28.30;;
57858;SDS011;49153;45.568;11.894;2022-10-15T12:35:54;46.00;;;29.83;;
57858;SDS011;49153;45.568;11.894;2022-10-15T12:38:33;44.80;;;28.73;;
57858;SDS011;49153;45.568;11.894;2022-10-15T12:43:35;46.75;;;28.77;;
57858;SDS011;49153;45.568;11.894;2022-10-15T12:46:04;48.25;;;31.20;;
57858;SDS011;49153;45.568;11.894;2022-10-15T12:48:37;47.70;;;29.23;;
57858;SDS011;49153;45.568;11.894;2022-10-15T12:53:49;43.22;;;27.80;;
57858;SDS011;49153;45.568;11.894;2022-10-15T12:58:42;42.67;;;26.52;;
57858;SDS011;49153;45.568;11.894;2022-10-15T13:14:02;51.25;;;31.92;;
57858;SDS011;49153;45.568;11.894;2022-10-15T13:16:33;49.17;;;30.90;;
57858;SDS011;49153;45.568;11.894;2022-10-15T13:18:59;44.88;;;28.55;;
57858;SDS011;49153;45.568;11.894;2022-10-15T13:24:19;47.85;;;29.05;;
57858;SDS011;49153;45.568;11.894;2022-10-15T13:26:46;52.67;;;31.08;;
57858;SDS011;49153;45.568;11.894;2022-10-15T13:29:16;50.38;;;31.55;;
57858;SDS011;49153;45.568;11.894;2022-10-15T13:31:43;46.22;;;28.98;;
57858;SDS011;49153;45.568;11.894;2022-10-15T13:34:26;48.38;;;29.27;;
57858;SDS011;49153;45.568;11.894;2022-10-15T13:36:54;50.97;;;31.85;;
57858;SDS011;49153;45.568;11.894;2022-10-15T13:39:23;40.03;;;26.30;;
57858;SDS011;49153;45.568;11.894;2022-10-15T13:42:04;48.55;;;29.73;;
57858;SDS011;49153;45.568;11.894;2022-10-15T13:44:38;48.47;;;28.75;;
57858;SDS011;49153;45.568;11.894;2022-10-15T13:50:10;46.63;;;29.83;;
57858;SDS011;49153;45.568;11.894;2022-10-15T13:52:39;53.63;;;31.70;;
57858;SDS011;49153;45.568;11.894;2022-10-15T13:55:19;50.90;;;31.73;;
57858;SDS011;49153;45.568;11.894;2022-10-15T13:57:59;39.72;;;25.85;;
57858;SDS011;49153;45.568;11.894;2022-10-15T14:00:31;42.35;;;25.50;;
57858;SDS011;49153;45.568;11.894;2022-10-15T14:05:47;54.03;;;29.67;;
57858;SDS011;49153;45.568;11.894;2022-10-15T14:08:33;40.28;;;25.63;;
57858;SDS011;49153;45.568;11.894;2022-10-15T14:11:02;46.42;;;28.67;;
57858;SDS011;49153;45.568;11.894;2022-10-15T14:13:28;40.42;;;24.73;;
57858;SDS011;49153;45.568;11.894;2022-10-15T14:16:01;41.97;;;26.95;;
57858;SDS011;49153;45.568;11.894;2022-10-15T14:18:47;38.50;;;24.63;;
57858;SDS011;49153;45.568;11.894;2022-10-15T14:21:18;44.58;;;27.27;;
57858;SDS011;49153;45.568;11.894;2022-10-15T14:24:00;42.85;;;27.73;;
57858;SDS011;49153;45.568;11.894;2022-10-15T14:26:32;43.58;;;25.85;;
57858;SDS011;49153;45.568;11.894;2022-10-15T14:28:58;42.50;;;27.65;;
57858;SDS011;49153;45.568;11.894;2022-10-15T14:31:32;40.55;;;27.50;;
57858;SDS011;49153;45.568;11.894;2022-10-15T14:34:02;43.15;;;26.23;;
57858;SDS011;49153;45.568;11.894;2022-10-15T14:36:29;45.17;;;25.85;;
57858;SDS011;49153;45.568;11.894;2022-10-15T14:42:00;45.40;;;27.27;;
57858;SDS011;49153;45.568;11.894;2022-10-15T14:44:43;38.72;;;24.63;;
57858;SDS011;49153;45.568;11.894;2022-10-15T14:47:16;41.35;;;25.77;;
57858;SDS011;49153;45.568;11.894;2022-10-15T14:49:50;42.90;;;26.30;;
57858;SDS011;49153;45.568;11.894;2022-10-15T14:52:19;41.65;;;25.85;;
57858;SDS011;49153;45.568;11.894;2022-10-15T14:54:48;42.38;;;25.17;;
57858;SDS011;49153;45.568;11.894;2022-10-15T14:57:23;42.28;;;24.23;;
57858;SDS011;49153;45.568;11.894;2022-10-15T14:59:55;37.40;;;23.20;;
57858;SDS011;49153;45.568;11.894;2022-10-15T15:02:22;40.13;;;24.80;;
57858;SDS011;49153;45.568;11.894;2022-10-15T15:04:52;37.75;;;24.20;;
57858;SDS011;49153;45.568;11.894;2022-10-15T15:07:41;45.55;;;25.80;;
57858;SDS011;49153;45.568;11.894;2022-10-15T15:10:08;37.10;;;23.95;;
57858;SDS011;49153;45.568;11.894;2022-10-15T15:12:53;34.95;;;21.73;;
57858;SDS011;49153;45.568;11.894;2022-10-15T15:15:21;41.83;;;24.58;;
57858;SDS011;49153;45.568;11.894;2022-10-15T15:17:48;36.63;;;23.80;;
57858;SDS011;49153;45.568;11.894;2022-10-15T15:20:15;40.33;;;24.52;;
57858;SDS011;49153;45.568;11.894;2022-10-15T15:22:44;42.80;;;25.63;;
57858;SDS011;49153;45.568;11.894;2022-10-15T15:28:02;41.15;;;26.08;;
57858;SDS011;49153;45.568;11.894;2022-10-15T15:30:29;36.00;;;23.17;;
57858;SDS011;49153;45.568;11.894;2022-10-15T15:32:58;44.53;;;26.38;;
57858;SDS011;49153;45.568;11.894;2022-10-15T15:35:29;47.03;;;27.55;;
57858;SDS011;49153;45.568;11.894;2022-10-15T15:38:00;46.15;;;29.83;;
57858;SDS011;49153;45.568;11.894;2022-10-15T15:40:26;47.65;;;28.38;;
57858;SDS011;49153;45.568;11.894;2022-10-15T15:42:52;53.88;;;30.60;;
57858;SDS011;49153;45.568;11.894;2022-10-15T15:45:21;49.28;;;30.13;;
57858;SDS011;49153;45.568;11.894;2022-10-15T15:47:49;44.70;;;28.02;;
57858;SDS011;49153;45.568;11.894;2022-10-15T15:50:15;47.60;;;29.05;;
57858;SDS011;49153;45.568;11.894;2022-10-15T15:52:41;51.53;;;29.48;;
57858;SDS011;49153;45.568;11.894;2022-10-15T15:55:08;48.60;;;29.35;;
57858;SDS011;49153;45.568;11.894;2022-10-15T15:57:34;46.30;;;27.45;;
57858;SDS011;49153;45.568;11.894;2022-10-15T16:00:00;45.45;;;27.45;;
57858;SDS011;49153;45.568;11.894;2022-10-15T16:02:28;46.63;;;27.88;;
57858;SDS011;49153;45.568;11.894;2022-10-15T16:04:54;48.33;;;28.67;;
57858;SDS011;49153;45.568;11.894;2022-10-15T16:07:19;51.90;;;31.15;;
57858;SDS011;49153;45.568;11.894;2022-10-15T16:09:44;47.33;;;29.20;;
57858;SDS011;49153;45.568;11.894;2022-10-15T16:12:10;50.38;;;30.33;;
57858;SDS011;49153;45.568;11.894;2022-10-15T16:14:35;50.42;;;30.45;;
57858;SDS011;49153;45.568;11.894;2022-10-15T16:17:02;51.97;;;30.58;;
57858;SDS011;49153;45.568;11.894;2022-10-15T16:19:27;49.60;;;30.58;;
57858;SDS011;49153;45.568;11.894;2022-10-15T16:21:53;50.00;;;30.42;;
57858;SDS011;49153;45.568;11.894;2022-10-15T16:24:18;48.30;;;30.13;;
57858;SDS011;49153;45.568;11.894;2022-10-15T16:26:44;51.50;;;30.80;;
57858;SDS011;49153;45.568;11.894;2022-10-15T16:29:09;47.78;;;29.45;;
57858;SDS011;49153;45.568;11.894;2022-10-15T16:31:36;49.67;;;29.83;;